sensor_id;sensor_type;location;lat;lon;timestamp;pressure;altitude;pressure_sealevel;temperature;humidity
11415;BME280;5763;42.714;23.244;2023-05-02T00:00:27;94785.19;;;13.54;60.24
11415;BME280;5763;42.714;23.244;2023-05-02T00:02:54;94882.50;;;14.21;60.51
11415;BME280;5763;42.714;23.244;2023-05-02T00:05:21;94810.63;;;13.63;60.46
11415;BME280;5763;42.714;23.244;2023-05-02T00:07:48;94877.88;;;14.18;60.68
11415;BME280;5763;42.714;23.244;2023-05-02T00:10:15;94856.56;;;14.04;60.86
11415;BME280;5763;42.714;23.244;2023-05-02T00:12:42;94798.72;;;13.66;61.38
11415;BME280;5763;42.714;23.244;2023-05-02T00:15:09;94736.00;;;13.23;61.11
11415;BME280;5763;42.714;23.244;2023-05-02T00:17:39;94901.75;;;14.21;61.66
11415;BME280;5763;42.714;23.244;2023-05-02T00:20:08;94806.56;;;13.82;61.51
11415;BME280;5763;42.714;23.244;2023-05-02T00:22:36;94795.69;;;13.64;61.58
11415;BME280;5763;42.714;23.244;2023-05-02T00:25:04;94839.13;;;14.07;61.41
11415;BME280;5763;42.714;23.244;2023-05-02T00:27:33;94838.94;;;14.11;61.25
11415;BME280;5763;42.714;23.244;2023-05-02T00:30:00;94718.50;;;13.44;60.89
11415;BME280;5763;42.714;23.244;2023-05-02T00:32:27;94735.50;;;13.57;60.65
11415;BME280;5763;42.714;23.244;2023-05-02T00:34:55;94898.97;;;14.68;60.53
11415;BME280;5763;42.714;23.244;2023-05-02T00:37:25;94866.03;;;14.36;60.56
11415;BME280;5763;42.714;23.244;2023-05-02T00:39:53;94735.09;;;13.73;60.07
11415;BME280;5763;42.714;23.244;2023-05-02T00:42:19;94791.97;;;13.91;60.30
11415;BME280;5763;42.714;23.244;2023-05-02T00:44:46;94891.31;;;14.72;60.13
11415;BME280;5763;42.714;23.244;2023-05-02T00:47:13;94898.53;;;14.70;60.16
11415;BME280;5763;42.714;23.244;2023-05-02T00:49:40;94912.31;;;14.84;60.00
11415;BME280;5763;42.714;23.244;2023-05-02T00:52:09;94924.41;;;14.87;59.39
11415;BME280;5763;42.714;23.244;2023-05-02T00:54:36;94777.81;;;13.60;59.43
11415;BME280;5763;42.714;23.244;2023-05-02T00:57:05;94909.41;;;14.64;59.80
11415;BME280;5763;42.714;23.244;2023-05-02T00:59:33;94866.53;;;14.25;60.31
11415;BME280;5763;42.714;23.244;2023-05-02T01:02:10;94917.97;;;14.66;60.22
11415;BME280;5763;42.714;23.244;2023-05-02T01:04:49;94789.94;;;13.77;59.95
11415;BME280;5763;42.714;23.244;2023-05-02T01:07:34;94876.38;;;14.64;60.36
11415;BME280;5763;42.714;23.244;2023-05-02T01:10:22;94901.84;;;14.74;60.70
11415;BME280;5763;42.714;23.244;2023-05-02T01:12:57;94880.38;;;14.40;60.36
11415;BME280;5763;42.714;23.244;2023-05-02T01:15:30;94893.69;;;14.79;60.57
11415;BME280;5763;42.714;23.244;2023-05-02T01:18:01;94867.75;;;14.48;60.66
11415;BME280;5763;42.714;23.244;2023-05-02T01:20:31;94802.81;;;14.18;60.61
11415;BME280;5763;42.714;23.244;2023-05-02T01:23:05;94835.16;;;14.32;60.51
11415;BME280;5763;42.714;23.244;2023-05-02T01:25:51;94790.63;;;14.10;60.58
11415;BME280;5763;42.714;23.244;2023-05-02T01:28:35;94767.88;;;13.86;61.06
11415;BME280;5763;42.714;23.244;2023-05-02T01:31:06;94792.28;;;14.16;61.43
11415;BME280;5763;42.714;23.244;2023-05-02T01:33:34;94883.97;;;14.69;61.57
11415;BME280;5763;42.714;23.244;2023-05-02T01:36:02;94880.44;;;14.69;61.52
11415;BME280;5763;42.714;23.244;2023-05-02T01:38:30;94873.31;;;14.62;61.32
11415;BME280;5763;42.714;23.244;2023-05-02T01:41:00;94805.50;;;14.03;61.35
11415;BME280;5763;42.714;23.244;2023-05-02T01:43:31;94853.44;;;14.44;61.91
11415;BME280;5763;42.714;23.244;2023-05-02T01:45:59;94883.44;;;14.56;62.25
11415;BME280;5763;42.714;23.244;2023-05-02T01:48:30;94782.69;;;13.88;61.65
11415;BME280;5763;42.714;23.244;2023-05-02T01:50:58;94754.13;;;13.62;61.96
11415;BME280;5763;42.714;23.244;2023-05-02T01:53:27;94906.72;;;14.55;62.05
11415;BME280;5763;42.714;23.244;2023-05-02T01:55:58;94884.88;;;14.52;61.91
11415;BME280;5763;42.714;23.244;2023-05-02T01:58:26;94878.50;;;14.46;62.53
11415;BME280;5763;42.714;23.244;2023-05-02T02:00:57;94852.53;;;14.38;61.96
11415;BME280;5763;42.714;23.244;2023-05-02T02:03:25;94886.22;;;14.56;62.30
11415;BME280;5763;42.714;23.244;2023-05-02T02:05:55;94752.97;;;13.54;62.05
11415;BME280;5763;42.714;23.244;2023-05-02T02:08:24;94768.88;;;13.50;62.70
11415;BME280;5763;42.714;23.244;2023-05-02T02:10:57;94787.78;;;13.81;62.61
11415;BME280;5763;42.714;23.244;2023-05-02T02:13:26;94726.91;;;13.41;62.65
11415;BME280;5763;42.714;23.244;2023-05-02T02:15:58;94816.50;;;14.03;62.81
11415;BME280;5763;42.714;23.244;2023-05-02T02:18:28;94882.34;;;14.39;62.80
11415;BME280;5763;42.714;23.244;2023-05-02T02:20:58;94876.44;;;14.32;63.35
11415;BME280;5763;42.714;23.244;2023-05-02T02:23:27;94724.97;;;13.32;63.34
11415;BME280;5763;42.714;23.244;2023-05-02T02:25:55;94886.63;;;14.40;63.33
11415;BME280;5763;42.714;23.244;2023-05-02T02:28:22;94870.94;;;14.32;62.92
11415;BME280;5763;42.714;23.244;2023-05-02T02:30:49;94886.47;;;14.44;62.97
11415;BME280;5763;42.714;23.244;2023-05-02T02:33:17;94898.19;;;14.53;62.50
11415;BME280;5763;42.714;23.244;2023-05-02T02:35:50;94916.28;;;14.45;61.59
11415;BME280;5763;42.714;23.244;2023-05-02T02:38:25;94897.47;;;14.20;61.41
11415;BME280;5763;42.714;23.244;2023-05-02T02:40:56;94935.84;;;14.24;61.20
11415;BME280;5763;42.714;23.244;2023-05-02T02:43:32;94902.38;;;14.16;61.19
11415;BME280;5763;42.714;23.244;2023-05-02T02:46:11;94867.25;;;13.79;61.52
11415;BME280;5763;42.714;23.244;2023-05-02T02:48:48;94919.28;;;14.00;61.24
11415;BME280;5763;42.714;23.244;2023-05-02T02:51:23;94903.25;;;13.90;61.54
11415;BME280;5763;42.714;23.244;2023-05-02T02:53:59;94893.03;;;13.49;61.79
11415;BME280;5763;42.714;23.244;2023-05-02T02:56:31;94922.44;;;13.75;61.88
11415;BME280;5763;42.714;23.244;2023-05-02T02:59:04;94789.84;;;12.79;62.04
11415;BME280;5763;42.714;23.244;2023-05-02T03:01:33;94940.94;;;13.66;61.75
11415;BME280;5763;42.714;23.244;2023-05-02T03:04:04;94856.97;;;13.05;61.43
11415;BME280;5763;42.714;23.244;2023-05-02T03:06:33;94912.31;;;13.40;61.87
11415;BME280;5763;42.714;23.244;2023-05-02T03:09:01;94900.16;;;13.14;61.97
11415;BME280;5763;42.714;23.244;2023-05-02T03:11:29;94930.19;;;13.35;62.63
11415;BME280;5763;42.714;23.244;2023-05-02T03:13:56;94910.53;;;12.92;62.74
11415;BME280;5763;42.714;23.244;2023-05-02T03:16:44;94863.72;;;12.77;63.19
11415;BME280;5763;42.714;23.244;2023-05-02T03:19:11;94948.81;;;13.31;63.12
11415;BME280;5763;42.714;23.244;2023-05-02T03:21:38;94959.34;;;13.33;63.35
11415;BME280;5763;42.714;23.244;2023-05-02T03:24:07;94937.22;;;13.36;63.11
11415;BME280;5763;42.714;23.244;2023-05-02T03:26:34;94885.97;;;12.88;63.16
11415;BME280;5763;42.714;23.244;2023-05-02T03:29:01;94874.69;;;12.59;63.10
11415;BME280;5763;42.714;23.244;2023-05-02T03:31:28;94887.81;;;13.00;63.34
11415;BME280;5763;42.714;23.244;2023-05-02T03:33:55;94928.06;;;13.21;63.51
11415;BME280;5763;42.714;23.244;2023-05-02T03:36:22;94960.88;;;13.25;63.98
11415;BME280;5763;42.714;23.244;2023-05-02T03:38:49;94914.22;;;13.07;64.06
11415;BME280;5763;42.714;23.244;2023-05-02T03:41:17;94841.47;;;12.57;63.85
11415;BME280;5763;42.714;23.244;2023-05-02T03:43:45;94889.16;;;12.87;63.99
11415;BME280;5763;42.714;23.244;2023-05-02T03:46:12;94918.94;;;13.15;63.90
11415;BME280;5763;42.714;23.244;2023-05-02T03:48:39;94883.84;;;13.01;63.95
11415;BME280;5763;42.714;23.244;2023-05-02T03:51:06;94862.31;;;12.82;64.14
11415;BME280;5763;42.714;23.244;2023-05-02T03:53:34;94945.00;;;13.38;63.81
11415;BME280;5763;42.714;23.244;2023-05-02T03:56:05;94834.59;;;12.35;63.84
11415;BME280;5763;42.714;23.244;2023-05-02T03:58:34;94935.09;;;13.22;63.87
11415;BME280;5763;42.714;23.244;2023-05-02T04:01:02;94920.59;;;13.13;63.59
11415;BME280;5763;42.714;23.244;2023-05-02T04:03:28;94949.41;;;13.44;63.44
11415;BME280;5763;42.714;23.244;2023-05-02T04:05:56;94784.09;;;12.41;63.26
11415;BME280;5763;42.714;23.244;2023-05-02T04:08:23;94897.84;;;13.21;63.33
11415;BME280;5763;42.714;23.244;2023-05-02T04:10:50;94902.09;;;13.22;63.62
11415;BME280;5763;42.714;23.244;2023-05-02T04:13:17;94973.66;;;13.55;63.78
11415;BME280;5763;42.714;23.244;2023-05-02T04:15:46;94911.69;;;13.36;63.73
11415;BME280;5763;42.714;23.244;2023-05-02T04:18:17;94823.44;;;12.56;64.00
11415;BME280;5763;42.714;23.244;2023-05-02T04:20:44;94837.88;;;12.93;64.36
11415;BME280;5763;42.714;23.244;2023-05-02T04:23:10;94866.25;;;13.17;64.76
11415;BME280;5763;42.714;23.244;2023-05-02T04:25:37;94932.06;;;13.71;65.30
11415;BME280;5763;42.714;23.244;2023-05-02T04:28:04;94939.25;;;13.68;64.72
11415;BME280;5763;42.714;23.244;2023-05-02T04:30:31;94849.16;;;13.13;65.23
11415;BME280;5763;42.714;23.244;2023-05-02T04:33:01;94953.69;;;13.87;64.95
11415;BME280;5763;42.714;23.244;2023-05-02T04:35:28;94903.66;;;13.65;64.58
11415;BME280;5763;42.714;23.244;2023-05-02T04:37:58;94945.56;;;14.01;64.28
11415;BME280;5763;42.714;23.244;2023-05-02T04:40:28;94851.34;;;13.50;63.58
11415;BME280;5763;42.714;23.244;2023-05-02T04:42:58;94919.13;;;13.95;63.46
11415;BME280;5763;42.714;23.244;2023-05-02T04:45:25;94949.13;;;14.25;62.89
11415;BME280;5763;42.714;23.244;2023-05-02T04:47:52;94810.47;;;13.34;62.73
11415;BME280;5763;42.714;23.244;2023-05-02T04:50:21;94947.50;;;14.42;62.44
11415;BME280;5763;42.714;23.244;2023-05-02T04:52:47;94950.88;;;14.46;62.33
11415;BME280;5763;42.714;23.244;2023-05-02T04:55:14;94955.69;;;14.51;61.90
11415;BME280;5763;42.714;23.244;2023-05-02T04:57:41;94888.38;;;14.05;61.66
11415;BME280;5763;42.714;23.244;2023-05-02T05:00:09;94942.28;;;14.44;61.64
11415;BME280;5763;42.714;23.244;2023-05-02T05:02:36;94792.56;;;13.48;61.22
11415;BME280;5763;42.714;23.244;2023-05-02T05:05:04;94848.84;;;13.94;61.35
11415;BME280;5763;42.714;23.244;2023-05-02T05:07:32;94854.94;;;13.65;61.14
11415;BME280;5763;42.714;23.244;2023-05-02T05:09:59;94857.72;;;13.89;61.13
11415;BME280;5763;42.714;23.244;2023-05-02T05:12:26;94885.84;;;14.16;60.21
11415;BME280;5763;42.714;23.244;2023-05-02T05:14:53;94947.75;;;14.53;60.08
11415;BME280;5763;42.714;23.244;2023-05-02T05:17:20;94954.97;;;14.51;60.23
11415;BME280;5763;42.714;23.244;2023-05-02T05:19:47;94888.66;;;14.07;60.54
11415;BME280;5763;42.714;23.244;2023-05-02T05:22:14;94876.88;;;14.07;60.22
11415;BME280;5763;42.714;23.244;2023-05-02T05:24:50;94964.97;;;14.63;59.26
11415;BME280;5763;42.714;23.244;2023-05-02T05:27:17;94948.44;;;14.63;59.24
11415;BME280;5763;42.714;23.244;2023-05-02T05:29:44;94901.03;;;14.35;59.71
11415;BME280;5763;42.714;23.244;2023-05-02T05:32:10;94923.47;;;14.66;58.33
11415;BME280;5763;42.714;23.244;2023-05-02T05:34:37;94801.97;;;13.79;58.37
11415;BME280;5763;42.714;23.244;2023-05-02T05:37:04;94920.81;;;14.57;58.41
11415;BME280;5763;42.714;23.244;2023-05-02T05:39:31;94901.31;;;14.46;58.39
11415;BME280;5763;42.714;23.244;2023-05-02T05:42:00;94844.38;;;13.96;58.23
11415;BME280;5763;42.714;23.244;2023-05-02T05:44:27;95015.47;;;14.92;58.43
11415;BME280;5763;42.714;23.244;2023-05-02T05:46:54;94917.44;;;14.53;58.54
11415;BME280;5763;42.714;23.244;2023-05-02T05:51:56;94858.97;;;14.11;57.76
11415;BME280;5763;42.714;23.244;2023-05-02T05:54:24;94897.22;;;14.56;58.02
11415;BME280;5763;42.714;23.244;2023-05-02T05:56:50;94991.44;;;15.07;58.00
11415;BME280;5763;42.714;23.244;2023-05-02T05:59:19;94936.97;;;14.64;57.84
11415;BME280;5763;42.714;23.244;2023-05-02T06:01:46;94986.72;;;15.22;56.88
11415;BME280;5763;42.714;23.244;2023-05-02T06:04:13;94945.59;;;14.95;56.80
11415;BME280;5763;42.714;23.244;2023-05-02T06:06:39;94986.03;;;15.13;56.81
11415;BME280;5763;42.714;23.244;2023-05-02T06:09:06;94896.72;;;14.43;56.15
11415;BME280;5763;42.714;23.244;2023-05-02T06:11:38;94853.06;;;14.04;56.45
11415;BME280;5763;42.714;23.244;2023-05-02T06:14:04;94878.78;;;14.48;56.07
11415;BME280;5763;42.714;23.244;2023-05-02T06:16:33;94929.13;;;14.86;55.70
11415;BME280;5763;42.714;23.244;2023-05-02T06:19:00;94849.31;;;14.16;56.29
11415;BME280;5763;42.714;23.244;2023-05-02T06:21:27;94918.81;;;14.96;55.34
11415;BME280;5763;42.714;23.244;2023-05-02T06:23:54;94961.75;;;15.26;55.14
11415;BME280;5763;42.714;23.244;2023-05-02T06:26:21;94878.97;;;14.44;54.32
11415;BME280;5763;42.714;23.244;2023-05-02T06:28:48;94842.97;;;14.48;54.81
11415;BME280;5763;42.714;23.244;2023-05-02T06:31:15;94916.06;;;15.10;53.81
11415;BME280;5763;42.714;23.244;2023-05-02T06:33:43;94882.88;;;14.90;54.21
11415;BME280;5763;42.714;23.244;2023-05-02T06:36:10;94971.50;;;15.50;54.63
11415;BME280;5763;42.714;23.244;2023-05-02T06:38:37;94961.13;;;15.74;54.18
11415;BME280;5763;42.714;23.244;2023-05-02T06:41:04;94974.06;;;15.83;52.79
11415;BME280;5763;42.714;23.244;2023-05-02T06:43:31;94864.28;;;15.14;53.32
11415;BME280;5763;42.714;23.244;2023-05-02T06:46:00;94836.69;;;15.00;52.97
11415;BME280;5763;42.714;23.244;2023-05-02T06:48:27;94882.75;;;15.52;52.15
11415;BME280;5763;42.714;23.244;2023-05-02T06:50:55;94875.44;;;15.34;52.02
11415;BME280;5763;42.714;23.244;2023-05-02T06:53:22;94978.88;;;16.17;51.64
11415;BME280;5763;42.714;23.244;2023-05-02T06:55:49;94914.47;;;15.91;50.83
11415;BME280;5763;42.714;23.244;2023-05-02T06:58:16;94934.25;;;16.04;51.23
11415;BME280;5763;42.714;23.244;2023-05-02T07:00:50;94833.00;;;15.32;50.56
11415;BME280;5763;42.714;23.244;2023-05-02T07:03:20;94873.44;;;15.49;50.24
11415;BME280;5763;42.714;23.244;2023-05-02T07:05:47;94891.84;;;15.72;50.62
11415;BME280;5763;42.714;23.244;2023-05-02T07:08:15;94982.47;;;16.37;50.87
11415;BME280;5763;42.714;23.244;2023-05-02T07:10:43;94983.59;;;16.45;50.14
11415;BME280;5763;42.714;23.244;2023-05-02T07:13:09;94828.13;;;15.56;50.63
11415;BME280;5763;42.714;23.244;2023-05-02T07:15:37;94978.56;;;16.78;49.26
11415;BME280;5763;42.714;23.244;2023-05-02T07:18:04;94876.56;;;16.06;49.31
11415;BME280;5763;42.714;23.244;2023-05-02T07:20:31;94929.22;;;16.37;49.04
11415;BME280;5763;42.714;23.244;2023-05-02T07:22:58;94982.22;;;16.90;48.81
11415;BME280;5763;42.714;23.244;2023-05-02T07:25:26;94924.53;;;16.58;47.84
11415;BME280;5763;42.714;23.244;2023-05-02T07:27:53;94996.66;;;16.99;48.81
11415;BME280;5763;42.714;23.244;2023-05-02T07:30:20;94893.00;;;16.49;47.76
11415;BME280;5763;42.714;23.244;2023-05-02T07:32:47;94985.75;;;17.10;47.17
11415;BME280;5763;42.714;23.244;2023-05-02T07:35:14;94982.16;;;17.24;47.87
11415;BME280;5763;42.714;23.244;2023-05-02T07:37:41;94932.25;;;16.93;47.67
11415;BME280;5763;42.714;23.244;2023-05-02T07:40:09;94913.72;;;16.79;45.99
11415;BME280;5763;42.714;23.244;2023-05-02T07:42:37;94947.97;;;17.27;45.74
11415;BME280;5763;42.714;23.244;2023-05-02T07:45:06;94927.56;;;17.25;45.43
11415;BME280;5763;42.714;23.244;2023-05-02T07:47:34;94969.69;;;17.55;44.50
11415;BME280;5763;42.714;23.244;2023-05-02T07:50:00;94955.56;;;17.52;44.63
11415;BME280;5763;42.714;23.244;2023-05-02T07:52:28;94937.19;;;17.29;43.52
11415;BME280;5763;42.714;23.244;2023-05-02T07:54:55;94871.09;;;16.86;44.04
11415;BME280;5763;42.714;23.244;2023-05-02T07:57:22;94917.00;;;17.44;43.61
11415;BME280;5763;42.714;23.244;2023-05-02T07:59:51;94979.66;;;17.98;44.57
11415;BME280;5763;42.714;23.244;2023-05-02T08:02:18;94981.06;;;18.18;43.50
11415;BME280;5763;42.714;23.244;2023-05-02T08:04:48;94968.56;;;18.28;44.03
11415;BME280;5763;42.714;23.244;2023-05-02T08:07:15;94980.53;;;18.46;43.02
11415;BME280;5763;42.714;23.244;2023-05-02T08:09:42;94918.31;;;18.10;42.92
11415;BME280;5763;42.714;23.244;2023-05-02T08:12:09;95003.78;;;18.54;43.41
11415;BME280;5763;42.714;23.244;2023-05-02T08:14:35;94949.34;;;18.51;42.95
11415;BME280;5763;42.714;23.244;2023-05-02T08:17:03;94978.78;;;18.85;43.79
11415;BME280;5763;42.714;23.244;2023-05-02T08:19:33;94933.53;;;18.62;43.15
11415;BME280;5763;42.714;23.244;2023-05-02T08:22:00;94952.41;;;19.06;42.23
11415;BME280;5763;42.714;23.244;2023-05-02T08:24:27;94974.69;;;19.22;42.75
11415;BME280;5763;42.714;23.244;2023-05-02T08:26:55;94886.16;;;18.66;40.65
11415;BME280;5763;42.714;23.244;2023-05-02T08:29:22;94989.38;;;19.39;41.22
11415;BME280;5763;42.714;23.244;2023-05-02T08:31:49;94987.63;;;19.42;41.65
11415;BME280;5763;42.714;23.244;2023-05-02T08:34:17;95012.41;;;19.51;40.95
11415;BME280;5763;42.714;23.244;2023-05-02T08:36:46;94873.44;;;18.96;39.96
11415;BME280;5763;42.714;23.244;2023-05-02T08:39:12;94971.81;;;19.70;39.95
11415;BME280;5763;42.714;23.244;2023-05-02T08:41:41;94974.34;;;19.84;40.89
11415;BME280;5763;42.714;23.244;2023-05-02T08:44:10;94965.59;;;20.13;39.92
11415;BME280;5763;42.714;23.244;2023-05-02T08:46:40;94964.81;;;20.24;38.59
11415;BME280;5763;42.714;23.244;2023-05-02T08:49:09;94922.81;;;19.67;38.08
11415;BME280;5763;42.714;23.244;2023-05-02T08:51:38;94962.50;;;20.50;38.60
11415;BME280;5763;42.714;23.244;2023-05-02T08:54:08;94922.84;;;20.44;36.92
11415;BME280;5763;42.714;23.244;2023-05-02T08:56:37;94869.06;;;19.75;37.40
11415;BME280;5763;42.714;23.244;2023-05-02T08:59:05;94909.97;;;20.30;37.43
11415;BME280;5763;42.714;23.244;2023-05-02T09:01:34;94942.03;;;20.69;37.85
11415;BME280;5763;42.714;23.244;2023-05-02T09:04:02;94852.88;;;20.18;36.58
11415;BME280;5763;42.714;23.244;2023-05-02T09:06:29;94950.06;;;21.00;36.99
11415;BME280;5763;42.714;23.244;2023-05-02T09:08:59;94886.66;;;20.60;36.04
11415;BME280;5763;42.714;23.244;2023-05-02T09:11:26;94920.47;;;20.81;36.33
11415;BME280;5763;42.714;23.244;2023-05-02T09:13:53;94837.22;;;19.93;36.01
11415;BME280;5763;42.714;23.244;2023-05-02T09:16:21;94822.09;;;19.83;36.05
11415;BME280;5763;42.714;23.244;2023-05-02T09:18:51;94865.25;;;20.06;36.95
11415;BME280;5763;42.714;23.244;2023-05-02T09:21:19;94859.47;;;19.60;36.15
11415;BME280;5763;42.714;23.244;2023-05-02T09:23:51;94828.66;;;19.36;36.29
11415;BME280;5763;42.714;23.244;2023-05-02T09:26:21;94954.44;;;20.08;37.31
11415;BME280;5763;42.714;23.244;2023-05-02T09:28:54;94968.59;;;20.26;37.63
11415;BME280;5763;42.714;23.244;2023-05-02T09:31:23;94957.97;;;20.25;37.65
11415;BME280;5763;42.714;23.244;2023-05-02T09:33:51;94942.78;;;20.04;37.03
11415;BME280;5763;42.714;23.244;2023-05-02T09:36:19;94900.34;;;19.70;37.07
11415;BME280;5763;42.714;23.244;2023-05-02T09:38:47;94954.97;;;20.23;37.49
11415;BME280;5763;42.714;23.244;2023-05-02T09:41:15;94858.97;;;19.56;36.57
11415;BME280;5763;42.714;23.244;2023-05-02T09:43:56;94956.47;;;20.24;36.86
11415;BME280;5763;42.714;23.244;2023-05-02T09:46:24;94955.47;;;20.16;36.86
11415;BME280;5763;42.714;23.244;2023-05-02T09:48:51;94955.22;;;20.08;36.62
11415;BME280;5763;42.714;23.244;2023-05-02T09:51:22;94968.06;;;20.06;36.11
11415;BME280;5763;42.714;23.244;2023-05-02T09:53:51;94838.13;;;19.02;36.46
11415;BME280;5763;42.714;23.244;2023-05-02T09:56:20;94883.19;;;19.66;36.39
11415;BME280;5763;42.714;23.244;2023-05-02T09:58:51;94818.06;;;19.51;36.16
11415;BME280;5763;42.714;23.244;2023-05-02T10:01:38;94888.47;;;20.41;36.09
11415;BME280;5763;42.714;23.244;2023-05-02T10:04:09;94927.81;;;20.78;35.86
11415;BME280;5763;42.714;23.244;2023-05-02T10:06:44;94853.88;;;20.37;34.42
11415;BME280;5763;42.714;23.244;2023-05-02T10:09:15;94938.03;;;21.33;34.78
11415;BME280;5763;42.714;23.244;2023-05-02T10:11:45;94868.78;;;21.13;35.41
11415;BME280;5763;42.714;23.244;2023-05-02T10:14:15;94935.59;;;22.05;34.71
11415;BME280;5763;42.714;23.244;2023-05-02T10:16:52;94811.50;;;21.93;35.22
11415;BME280;5763;42.714;23.244;2023-05-02T10:19:23;94926.63;;;23.19;33.26
11415;BME280;5763;42.714;23.244;2023-05-02T10:21:53;94798.81;;;22.88;32.02
11415;BME280;5763;42.714;23.244;2023-05-02T10:24:21;94921.91;;;24.19;32.04
11415;BME280;5763;42.714;23.244;2023-05-02T10:26:55;94842.91;;;23.82;30.90
11415;BME280;5763;42.714;23.244;2023-05-02T10:29:30;94914.19;;;24.70;29.26
11415;BME280;5763;42.714;23.244;2023-05-02T10:31:59;94886.00;;;24.68;27.73
11415;BME280;5763;42.714;23.244;2023-05-02T10:34:32;94951.78;;;24.87;27.93
11415;BME280;5763;42.714;23.244;2023-05-02T10:37:04;94792.69;;;23.95;29.07
11415;BME280;5763;42.714;23.244;2023-05-02T10:39:34;94807.13;;;24.12;28.86
11415;BME280;5763;42.714;23.244;2023-05-02T10:42:03;94916.88;;;24.88;28.46
11415;BME280;5763;42.714;23.244;2023-05-02T10:44:34;94905.38;;;24.79;28.14
11415;BME280;5763;42.714;23.244;2023-05-02T10:47:17;94898.81;;;24.89;28.70
11415;BME280;5763;42.714;23.244;2023-05-02T10:49:51;94871.56;;;24.77;27.22
11415;BME280;5763;42.714;23.244;2023-05-02T10:52:25;94904.09;;;25.19;28.22
11415;BME280;5763;42.714;23.244;2023-05-02T10:55:12;94850.09;;;25.18;27.95
11415;BME280;5763;42.714;23.244;2023-05-02T11:00:42;94787.84;;;25.25;28.67
11415;BME280;5763;42.714;23.244;2023-05-02T11:03:09;94892.38;;;26.00;26.44
11415;BME280;5763;42.714;23.244;2023-05-02T11:06:05;94889.09;;;25.76;26.46
11415;BME280;5763;42.714;23.244;2023-05-02T11:08:32;94882.06;;;25.49;27.49
11415;BME280;5763;42.714;23.244;2023-05-02T11:14:42;94761.81;;;24.00;26.46
11415;BME280;5763;42.714;23.244;2023-05-02T11:17:10;94838.13;;;24.40;26.52
11415;BME280;5763;42.714;23.244;2023-05-02T11:22:55;94806.63;;;23.63;27.88
11415;BME280;5763;42.714;23.244;2023-05-02T11:25:34;94867.19;;;23.74;28.69
11415;BME280;5763;42.714;23.244;2023-05-02T11:28:06;94882.53;;;23.67;28.15
11415;BME280;5763;42.714;23.244;2023-05-02T11:30:49;94898.03;;;23.68;28.64
11415;BME280;5763;42.714;23.244;2023-05-02T11:35:53;94713.66;;;22.81;27.80
11415;BME280;5763;42.714;23.244;2023-05-02T11:38:23;94866.72;;;23.88;28.66
11415;BME280;5763;42.714;23.244;2023-05-02T11:40:57;94725.72;;;23.08;27.56
11415;BME280;5763;42.714;23.244;2023-05-02T11:46:06;94768.16;;;24.14;28.45
11415;BME280;5763;42.714;23.244;2023-05-02T11:48:40;94766.13;;;24.40;26.55
11415;BME280;5763;42.714;23.244;2023-05-02T11:51:09;94850.19;;;25.39;26.73
11415;BME280;5763;42.714;23.244;2023-05-02T11:53:42;94707.03;;;24.70;27.40
11415;BME280;5763;42.714;23.244;2023-05-02T11:56:14;94721.03;;;24.70;25.95
11415;BME280;5763;42.714;23.244;2023-05-02T11:58:45;94730.31;;;24.98;26.71
11415;BME280;5763;42.714;23.244;2023-05-02T12:01:23;94815.94;;;25.87;25.32
11415;BME280;5763;42.714;23.244;2023-05-02T12:04:01;94805.59;;;25.82;25.09
11415;BME280;5763;42.714;23.244;2023-05-02T12:09:09;94823.94;;;26.24;25.33
11415;BME280;5763;42.714;23.244;2023-05-02T12:11:36;94763.25;;;25.52;25.88
11415;BME280;5763;42.714;23.244;2023-05-02T12:14:04;94690.06;;;24.88;26.04
11415;BME280;5763;42.714;23.244;2023-05-02T12:19:15;94801.50;;;25.62;26.78
11415;BME280;5763;42.714;23.244;2023-05-02T12:21:53;94724.41;;;25.02;26.83
11415;BME280;5763;42.714;23.244;2023-05-02T12:24:22;94678.78;;;24.34;26.99
11415;BME280;5763;42.714;23.244;2023-05-02T12:27:10;94776.16;;;24.88;27.01
11415;BME280;5763;42.714;23.244;2023-05-02T12:29:39;94802.94;;;24.57;27.63
11415;BME280;5763;42.714;23.244;2023-05-02T12:32:06;94743.78;;;24.27;27.88
11415;BME280;5763;42.714;23.244;2023-05-02T12:34:33;94729.69;;;24.20;28.35
11415;BME280;5763;42.714;23.244;2023-05-02T12:37:01;94791.09;;;24.90;27.33
11415;BME280;5763;42.714;23.244;2023-05-02T12:39:36;94730.16;;;24.83;26.33
11415;BME280;5763;42.714;23.244;2023-05-02T12:42:10;94643.13;;;24.61;25.88
11415;BME280;5763;42.714;23.244;2023-05-02T12:47:13;94767.31;;;25.64;26.62
11415;BME280;5763;42.714;23.244;2023-05-02T12:49:54;94636.69;;;24.86;26.77
11415;BME280;5763;42.714;23.244;2023-05-02T12:55:16;94732.28;;;25.98;25.20
11415;BME280;5763;42.714;23.244;2023-05-02T12:57:43;94735.00;;;25.91;25.46
11415;BME280;5763;42.714;23.244;2023-05-02T13:00:11;94737.50;;;25.74;24.61
11415;BME280;5763;42.714;23.244;2023-05-02T13:02:44;94646.28;;;24.78;24.54
11415;BME280;5763;42.714;23.244;2023-05-02T13:05:18;94750.88;;;25.68;24.33
11415;BME280;5763;42.714;23.244;2023-05-02T13:07:45;94742.19;;;25.58;24.39
11415;BME280;5763;42.714;23.244;2023-05-02T13:10:13;94747.72;;;25.51;25.43
11415;BME280;5763;42.714;23.244;2023-05-02T13:12:43;94746.38;;;25.65;24.69
11415;BME280;5763;42.714;23.244;2023-05-02T13:15:11;94653.31;;;24.71;24.11
11415;BME280;5763;42.714;23.244;2023-05-02T13:17:41;94662.66;;;24.87;24.34
11415;BME280;5763;42.714;23.244;2023-05-02T13:20:08;94743.00;;;25.46;23.95
11415;BME280;5763;42.714;23.244;2023-05-02T13:22:41;94603.84;;;24.87;24.52
11415;BME280;5763;42.714;23.244;2023-05-02T13:25:11;94595.22;;;24.85;25.00
11415;BME280;5763;42.714;23.244;2023-05-02T13:27:38;94750.53;;;26.12;23.15
11415;BME280;5763;42.714;23.244;2023-05-02T13:30:08;94733.94;;;25.73;23.80
11415;BME280;5763;42.714;23.244;2023-05-02T13:32:39;94689.91;;;25.61;23.27
11415;BME280;5763;42.714;23.244;2023-05-02T13:35:07;94694.13;;;25.54;22.90
11415;BME280;5763;42.714;23.244;2023-05-02T13:37:34;94749.47;;;25.95;23.87
11415;BME280;5763;42.714;23.244;2023-05-02T13:42:36;94708.06;;;25.26;23.50